Flight Track Log - Related Links

Times and Time Zones

All times are in EDT time to prevent confusion due to time zone crossing. See the UAL481 flight status page for this flight to view local times or setup timezone preferences in your user account.

Time Position Orientation Groundspeed Altitude Reporting Facility
EDT Latitude Longitude Course Direction KTS MPH feet Rate Location/Type
Tue 05:59:58 PM 42.7297 -73.8081 282° West 131 151 1,200  Level Boston Center
Tue 06:00:58 PM 42.6981 -73.8414 218° Southwest 197 227 2,900 2,108 Climbing Boston Center
Tue 06:02:26 PM 42.7742 -73.9167 324° Northwest 286 329 6,400 2,940 Climbing Boston Center
Tue 06:03:00 PM 42.8287 -74.3078 284° West  Level FlightAware Approximate
Tue 06:03:27 PM 42.8403 -73.9692 330° Northwest 286 329 10,200  Level Boston Center
Tue 06:04:00 PM 42.8506 -74.4366 283° West  Level FlightAware Approximate
Tue 06:04:27 PM 42.9228 -74.0392 328° Northwest 303 349 12,400  Level Boston Center
Tue 06:05:00 PM 42.8841 -74.5549 282° West  Level FlightAware Approximate
Tue 06:05:25 PM 42.9886 -74.0950 328° Northwest 331 381 14,600  Level Boston Center
Tue 06:06:25 PM 43.0533 -74.2303 303° West 353 406 17,700 2,390 Climbing Boston Center
Tue 06:07:28 PM 43.0953 -74.3450 297° West 359 413 19,500 1,950 Climbing Boston Center
Tue 06:08:25 PM 43.1431 -74.4747 297° West 372 428 21,600 2,031 Climbing Boston Center
Tue 06:09:38 PM 43.2003 -74.6361 296° West 388 447 23,900 1,669 Climbing Boston Center
Tue 06:10:38 PM 43.2497 -74.7719 297° West 393 452 25,300 1,289 Climbing Boston Center
Tue 06:11:39 PM 43.2925 -74.9247 291° West 408 470 26,500 1,537 Climbing Boston Center
Tue 06:12:39 PM 43.2761 -75.0894 262° West 414 476 28,400 1,636 Climbing Boston Center
Tue 06:13:40 PM 43.2597 -75.2542 262° West 427 491 29,800 763 Climbing Boston Center
Tue 06:14:37 PM 43.2411 -75.4186 261° West 441 507 29,900 51 Climbing Boston Center
Tue 06:15:38 PM 43.2264 -75.5775 263° West 441 507 29,900 49 Level Boston Center
Tue 06:16:39 PM 43.2092 -75.7392 262° West 441 507 30,000  Climbing Boston Center
Tue 06:17:37 PM 43.1961 -75.9008 264° West 441 507 29,900  Descending Boston Center
Tue 06:18:38 PM 43.1817 -76.0311 261° West 441 507 30,000 35 Climbing Boston Center
Tue 06:20:27 PM 43.1586 -76.3650 265° West 419 482 30,000 -35 Level Cleveland Center
Tue 06:21:28 PM 43.1603 -76.5242 271° West 426 490 29,900 -50 Descending Cleveland Center
Tue 06:22:27 PM 43.1617 -76.6864 271° West 426 490 29,900 50 Level Cleveland Center
Tue 06:23:27 PM 43.1586 -76.8489 269° West 426 490 30,000 600 Climbing Cleveland Center
Tue 06:24:27 PM 43.1575 -77.0083 270° West 421 484 31,100 1,000 Climbing Cleveland Center
Tue 06:25:27 PM 43.1581 -77.1650 270° West 421 484 32,000 450 Climbing Cleveland Center
Tue 06:26:27 PM 43.1561 -77.3217 269° West 421 484 32,000  Level Cleveland Center
Tue 06:27:27 PM 43.1542 -77.4725 269° West 416 479 32,000  Level Cleveland Center
Tue 06:28:27 PM 43.1522 -77.6433 269° West 410 472 32,000  Level Cleveland Center
Tue 06:29:27 PM 43.1519 -77.7944 270° West 404 465 32,000  Level Cleveland Center
Tue 06:30:27 PM 43.1492 -77.9453 269° West 404 465 32,000  Level Cleveland Center
Tue 06:31:27 PM 43.1483 -78.0961 270° West 404 465 32,000  Level Cleveland Center
Tue 06:32:27 PM 43.1433 -78.2500 268° West 404 465 32,000  Level Cleveland Center
Tue 06:33:27 PM 43.1400 -78.4008 268° West 404 465 32,000  Level Cleveland Center
Tue 06:34:27 PM 43.1386 -78.5519 269° West 404 465 32,000  Level Cleveland Center
Tue 06:35:27 PM 43.1328 -78.7056 267° West 404 465 32,000  Level Cleveland Center
Tue 06:36:27 PM 43.1289 -78.8536 268° West 404 465 32,000  Level Cleveland Center
Tue 06:37:28 PM 43.1247 -79.0044 268° West 404 465 32,000 450 Level Cleveland Center
Tue 06:38:27 PM 43.1225 -79.1525 269° West 404 465 32,900 1,008 Climbing Cleveland Center
Tue 06:39:27 PM 43.1139 -79.3006 265° West 404 465 34,000 550 Climbing Cleveland Center
Tue 06:40:27 PM 43.1111 -79.4486 269° West 404 465 34,000  Level Cleveland Center
Tue 06:41:47 PM 43.1000 -79.6333 265° West 390 449 34,000  Level Toronto Center
Tue 06:42:47 PM 43.0833 -79.7667 260° West 390 449 34,000  Level Toronto Center
Tue 06:43:47 PM 43.0833 -79.9333 270° West 390 449 34,000  Level Toronto Center
Tue 06:44:47 PM 43.0833 -80.0667 270° West 390 449 34,000  Level Toronto Center
Tue 06:45:47 PM 43.0667 -80.2000 260° West 390 449 34,000  Level Toronto Center
Tue 06:46:47 PM 43.0667 -80.3667 270° West 390 449 34,000  Level Toronto Center
Tue 06:47:47 PM 43.0667 -80.5000 270° West 390 449 34,000  Level Toronto Center
Tue 06:48:47 PM 43.0500 -80.6667 262° West 390 449 34,000 750 Level Toronto Center
Tue 06:49:47 PM 43.0500 -80.8000 270° West 390 449 35,500 1,000 Climbing Toronto Center
Tue 06:50:47 PM 43.0333 -80.9333 260° West 380 437 36,000 250 Climbing Toronto Center
Tue 06:51:47 PM 43.0167 -81.1000 262° West 370 426 36,000  Level Toronto Center
Tue 06:52:47 PM 43.0167 -81.2333 270° West 370 426 36,000  Level Toronto Center
Tue 06:53:47 PM 43.0167 -81.3667 270° West 360 414 36,000  Level Toronto Center
Tue 06:54:47 PM 43.0167 -81.5000 270° West 360 414 36,000  Level Toronto Center
Tue 06:55:47 PM 43.0167 -81.6333 270° West 360 414 36,000  Level Toronto Center
Tue 06:56:47 PM 43.0167 -81.7833 270° West 360 414 36,000  Level Toronto Center
Tue 06:57:47 PM 43.0000 -81.9167 260° West 360 414 36,000  Level Toronto Center
Tue 06:58:47 PM 43.0000 -82.0500 270° West 360 414 36,000  Level Toronto Center
Tue 06:59:47 PM 43.0000 -82.1833 270° West 360 414 36,000  Level Toronto Center
Tue 07:00:47 PM 43.0000 -82.3167 270° West 370 426 36,000  Level Toronto Center
Tue 07:01:47 PM 43.0000 -82.4667 270° West 370 426 36,000  Level Toronto Center
Tue 07:02:47 PM 43.0000 -82.6000 270° West 360 414 36,000  Level Toronto Center
Tue 07:03:28 PM 43.0014 -82.6953 271° West 367 422 36,000  Level Cleveland Center
Tue 07:04:28 PM 42.9967 -82.8342 267° West 367 422 36,000  Level Cleveland Center
Tue 07:05:28 PM 42.9939 -82.9761 269° West 367 422 36,000  Level Cleveland Center
Tue 07:06:28 PM 42.9869 -83.1092 266° West 367 422 36,000  Level Cleveland Center
Tue 07:07:28 PM 42.9775 -83.2508 265° West 367 422 36,000  Level Cleveland Center
Tue 07:08:28 PM 42.9656 -83.4033 264° West 367 422 36,000  Level Cleveland Center
Tue 07:09:28 PM 42.9536 -83.5419 263° West 367 422 36,000  Level Cleveland Center
Tue 07:10:27 PM 42.9439 -83.6806 265° West 367 422 36,000  Level Cleveland Center
Tue 07:11:28 PM 42.9317 -83.8217 263° West 367 422 36,000  Level Cleveland Center
Tue 07:12:28 PM 42.9192 -83.9600 263° West 367 422 36,000  Level Cleveland Center
Tue 07:13:28 PM 42.9089 -84.0983 264° West 367 422 36,000 -50 Level Cleveland Center
Tue 07:14:27 PM 42.8983 -84.2339 264° West 367 422 35,900 -517 Descending Cleveland Center
Tue 07:15:24 PM 42.8883 -84.3547 264° West 371 427 35,000 -958 Descending Chicago Center
Tue 07:16:26 PM 42.8775 -84.4958 264° West 373 429 34,000 -968 Descending Chicago Center
Tue 07:17:28 PM 42.8644 -84.6403 263° West 383 441 33,000 -919 Descending Chicago Center
Tue 07:18:30 PM 42.8517 -84.7861 263° West 387 445 32,100 -484 Descending Chicago Center
Tue 07:19:32 PM 42.8358 -84.9597 263° West 387 445 32,000 -48 Descending Chicago Center
Tue 07:20:34 PM 42.8225 -85.1056 263° West 388 447 32,000  Level Chicago Center
Tue 07:21:36 PM 42.8097 -85.2503 263° West 386 444 32,000 -629 Level Chicago Center
Tue 07:22:38 PM 42.7961 -85.3942 263° West 384 442 30,700 -1,548 Descending Chicago Center
Tue 07:23:40 PM 42.7800 -85.5347 261° West 377 434 28,800 -1,824 Descending Chicago Center
Tue 07:24:43 PM 42.7539 -85.6747 256° West 380 437 26,900 -1,824 Descending Chicago Center
Tue 07:25:45 PM 42.7289 -85.8125 256° West 374 430 25,000 -1,935 Descending Chicago Center
Tue 07:26:47 PM 42.7000 -85.9739 256° West 365 420 22,900 -1,839 Descending Chicago Center
Tue 07:27:49 PM 42.6764 -86.1056 256° West 360 414 21,200 -1,403 Descending Chicago Center
Tue 07:28:51 PM 42.6519 -86.2367 256° West 357 411 20,000 -581 Descending Chicago Center
Tue 07:29:53 PM 42.6272 -86.3653 255° West 353 406 20,000 -97 Level Chicago Center
Tue 07:30:55 PM 42.6036 -86.4944 256° West 352 405 19,800 -968 Descending Chicago Center
Tue 07:31:57 PM 42.5794 -86.6203 255° West 347 399 18,000 -1,645 Descending Chicago Center
Tue 07:32:59 PM 42.5564 -86.7450 256° West 343 395 16,400 -2,032 Descending Chicago Center
Tue 07:34:01 PM 42.5186 -86.8808 249° West 325 374 13,800 -2,177 Descending Chicago Center
Tue 07:35:03 PM 42.4881 -86.9950 250° West 317 365 11,900 -1,776 Descending Chicago Center
Tue 07:36:06 PM 42.4567 -87.1011 248° West 313 360 10,100 -960 Descending Chicago Center
Tue 07:37:08 PM 42.4272 -87.2094 250° West 310 357 9,900 -532 Descending Chicago Center
Tue 07:38:10 PM 42.4011 -87.3033 249° West 278 320 9,000 -1,016 Descending Chicago Center
Tue 07:39:12 PM 42.3708 -87.4175 250° West 271 312 7,800 -919 Descending Chicago Center
Tue 07:40:14 PM 42.3467 -87.5028 249° West 257 296 7,100 -1,016 Descending Chicago Center
Tue 07:41:16 PM 42.2903 -87.5008 179° South 224 258 5,700 -1,016 Descending Chicago Center
Tue 07:42:18 PM 42.2311 -87.4589 152° Southeast 237 273 5,000 -484 Descending Chicago Center
Tue 07:43:20 PM 42.1714 -87.4297 160° South 233 268 4,700 -484 Descending Chicago Center
Tue 07:44:22 PM 42.1003 -87.4242 177° South 219 252 4,000 -339 Descending Chicago Center
Tue 07:45:24 PM 42.0392 -87.4133 172° South 219 252 4,000  Level Chicago Center
Tue 07:46:27 PM 42.0056 -87.4503 219° Southwest 199 229 4,000  Level Chicago Center
Tue 07:47:29 PM 42.0011 -87.5178 265° West 188 216 4,000  Level Chicago Center
Tue 07:48:31 PM 42.0028 -87.5861 272° West 185 213 4,000 -48 Level Chicago Center
Tue 07:49:33 PM 42.0028 -87.6675 270° West 184 212 3,900 -484 Descending Chicago Center
Tue 07:50:35 PM 42.0022 -87.7344 269° West 182 209 3,000 -919 Descending Chicago Center
Tue 07:51:37 PM 42.0028 -87.8028 271° West 183 211 2,000 -774 Descending Chicago Center
Tue 07:52:39 PM 42.0022 -87.8681 269° West 179 206 1,400 -435 Descending Chicago Center
Tue 07:53:41 PM 42.0042 -87.9172 273° West 174 200 1,100 -290 Descending Chicago Center

Login

Don't have an account? Register now (free) for customized features, flight alerts, and more!